Impacts METAR Board INFO
IDs:

KDFW - Dallas-Ft Worth Intl, TX, US

Updated at: 1538 UTC 17 Dec 2017
Potential Impact None Slight Moderate High
Time17/03Z 17/04Z 17/05Z 17/06Z 17/07Z 17/08Z 17/09Z 17/10Z 17/11Z 17/12Z 17/13Z 17/14Z 17/15Z
VIS4 4 6 7 7 7 7 7 6 5 2 1.25 5
CIG13 55 27 33 6 6 6 6 5 4 2 3 5
CoverOVCOVCOVCOVCOVCOVCOVCOVCOVCOVCOVCOVCOVC
FltCatMVFRMVFRMVFRVFRIFRIFRIFRIFRIFRLIFRLIFRLIFRIFR
WXRA BR-RA BR-RA BR----------BRBR-DZ BR-DZ BRBR
WDir120150170140140150180180170140140170180
WSpd8 9 8 9 7 7 7 6 8 6 8 5 7
WGst-- -- -- -- -- -- -- -- -- -- -- -- --
Raw hourly METARs
KDFW 170302Z 12008KT 4SM RA BR SCT008 BKN013 OVC049 07/07 A3002 RMK AO2 SCT008 V BKN P0004 T00720067 $
KDFW 170353Z 15009KT 4SM -RA BR SCT005 SCT015 OVC055 07/06 A3005 RMK AO2 SLP174 SCT015 V BKN P0031 T00720061 $
KDFW 170453Z 17008KT 6SM -RA BR FEW005 BKN027 OVC034 07/06 A3006 RMK AO2 SLP177 P0005 T00720061 $
KDFW 170553Z 14009KT 7SM FEW007 BKN033 OVC055 07/06 A3003 RMK AO2 RAE12 SLP168 P0000 60069 T00720061 10083 20072 401720033 50004 $
KDFW 170705Z 14007KT 7SM BKN006 OVC036 08/06 A3001 RMK AO2 T00780061 $
KDFW 170753Z 15007KT 7SM BKN006 OVC044 08/07 A3000 RMK AO2 SLP157 T00780067 $
KDFW 170853Z 18007KT 7SM OVC006 08/07 A3003 RMK AO2 SLP166 T00780067 55002 $
KDFW 170953Z 18006KT 7SM OVC006 08/06 A3002 RMK AO2 SLP163 T00780061 $
KDFW 171053Z 17008KT 6SM BR OVC005 08/06 A3003 RMK AO2 SLP166 T00780061 $
KDFW 171153Z 14006KT 5SM BR OVC004 08/06 A3002 RMK AO2 SLP163 70073 T00780061 10078 20072 50001 $
KDFW 171253Z 14008KT 2SM -DZ BR OVC002 07/07 A3005 RMK AO2 TWR VIS 3 DZB50 SLP175 P0000 T00720067 $
KDFW 171353Z 17005KT 1 1/4SM -DZ BR OVC003 08/07 A3006 RMK AO2 SFC VIS 1 1/2 SLP180 P0000 T00780067 $
KDFW 171500Z 18007KT 5SM BR BKN005 OVC011 08/07 A3006 RMK AO2 T00830072 $